sensor_id;sensor_type;location;lat;lon;timestamp;P1;durP1;ratioP1;P2;durP2;ratioP2
13764;SDS011;6953;48.810;9.204;2023-02-11T00:00:50;0.80;;;0.80;;
13764;SDS011;6953;48.810;9.204;2023-02-11T00:03:16;0.90;;;0.90;;
13764;SDS011;6953;48.810;9.204;2023-02-11T00:05:41;0.80;;;0.80;;
13764;SDS011;6953;48.810;9.204;2023-02-11T00:08:06;0.90;;;0.90;;
13764;SDS011;6953;48.810;9.204;2023-02-11T00:10:32;0.90;;;0.90;;
13764;SDS011;6953;48.810;9.204;2023-02-11T00:12:57;0.70;;;0.70;;
13764;SDS011;6953;48.810;9.204;2023-02-11T00:15:23;0.90;;;0.90;;
13764;SDS011;6953;48.810;9.204;2023-02-11T00:17:48;0.90;;;0.90;;
13764;SDS011;6953;48.810;9.204;2023-02-11T00:20:13;1.10;;;1.10;;
13764;SDS011;6953;48.810;9.204;2023-02-11T00:22:39;0.80;;;0.80;;
13764;SDS011;6953;48.810;9.204;2023-02-11T00:25:04;0.80;;;0.80;;
13764;SDS011;6953;48.810;9.204;2023-02-11T00:27:30;0.90;;;0.90;;
13764;SDS011;6953;48.810;9.204;2023-02-11T00:29:55;0.80;;;0.80;;
13764;SDS011;6953;48.810;9.204;2023-02-11T00:32:21;0.90;;;0.90;;
13764;SDS011;6953;48.810;9.204;2023-02-11T00:34:46;0.90;;;0.90;;
13764;SDS011;6953;48.810;9.204;2023-02-11T00:37:12;0.80;;;0.80;;
13764;SDS011;6953;48.810;9.204;2023-02-11T00:39:37;0.80;;;0.80;;
13764;SDS011;6953;48.810;9.204;2023-02-11T00:42:03;0.90;;;0.90;;
13764;SDS011;6953;48.810;9.204;2023-02-11T00:44:28;0.70;;;0.70;;
13764;SDS011;6953;48.810;9.204;2023-02-11T00:46:53;0.70;;;0.70;;
13764;SDS011;6953;48.810;9.204;2023-02-11T00:49:19;0.80;;;0.80;;
13764;SDS011;6953;48.810;9.204;2023-02-11T00:51:44;0.90;;;0.90;;
13764;SDS011;6953;48.810;9.204;2023-02-11T00:54:10;0.93;;;0.93;;
13764;SDS011;6953;48.810;9.204;2023-02-11T00:56:35;0.90;;;0.90;;
13764;SDS011;6953;48.810;9.204;2023-02-11T00:59:00;0.80;;;0.80;;
13764;SDS011;6953;48.810;9.204;2023-02-11T01:01:26;0.80;;;0.80;;
13764;SDS011;6953;48.810;9.204;2023-02-11T01:03:51;0.80;;;0.80;;
13764;SDS011;6953;48.810;9.204;2023-02-11T01:06:17;0.90;;;0.90;;
13764;SDS011;6953;48.810;9.204;2023-02-11T01:08:42;1.00;;;1.00;;
13764;SDS011;6953;48.810;9.204;2023-02-11T01:11:12;0.90;;;0.90;;
13764;SDS011;6953;48.810;9.204;2023-02-11T01:13:40;0.90;;;0.90;;
13764;SDS011;6953;48.810;9.204;2023-02-11T01:16:06;0.83;;;0.83;;
13764;SDS011;6953;48.810;9.204;2023-02-11T01:18:33;0.77;;;0.77;;
13764;SDS011;6953;48.810;9.204;2023-02-11T01:20:59;0.70;;;0.70;;
13764;SDS011;6953;48.810;9.204;2023-02-11T01:23:24;0.70;;;0.70;;
13764;SDS011;6953;48.810;9.204;2023-02-11T01:25:50;0.90;;;0.90;;
13764;SDS011;6953;48.810;9.204;2023-02-11T01:28:17;0.80;;;0.80;;
13764;SDS011;6953;48.810;9.204;2023-02-11T01:30:50;0.80;;;0.80;;
13764;SDS011;6953;48.810;9.204;2023-02-11T01:33:16;0.93;;;0.93;;
13764;SDS011;6953;48.810;9.204;2023-02-11T01:35:42;0.93;;;0.93;;
13764;SDS011;6953;48.810;9.204;2023-02-11T01:38:11;0.90;;;0.90;;
13764;SDS011;6953;48.810;9.204;2023-02-11T01:40:39;0.83;;;0.83;;
13764;SDS011;6953;48.810;9.204;2023-02-11T01:43:05;0.70;;;0.70;;
13764;SDS011;6953;48.810;9.204;2023-02-11T01:48:21;0.90;;;0.90;;
13764;SDS011;6953;48.810;9.204;2023-02-11T01:50:54;0.90;;;0.90;;
13764;SDS011;6953;48.810;9.204;2023-02-11T01:53:25;0.80;;;0.80;;
13764;SDS011;6953;48.810;9.204;2023-02-11T01:56:10;0.87;;;0.87;;
13764;SDS011;6953;48.810;9.204;2023-02-11T01:58:56;0.83;;;0.83;;
13764;SDS011;6953;48.810;9.204;2023-02-11T02:01:26;0.80;;;0.80;;
13764;SDS011;6953;48.810;9.204;2023-02-11T02:03:56;0.70;;;0.70;;
13764;SDS011;6953;48.810;9.204;2023-02-11T02:06:26;0.93;;;0.93;;
13764;SDS011;6953;48.810;9.204;2023-02-11T02:09:05;0.80;;;0.80;;
13764;SDS011;6953;48.810;9.204;2023-02-11T02:11:33;0.70;;;0.70;;
13764;SDS011;6953;48.810;9.204;2023-02-11T02:14:00;0.90;;;0.90;;
13764;SDS011;6953;48.810;9.204;2023-02-11T02:16:28;1.00;;;1.00;;
13764;SDS011;6953;48.810;9.204;2023-02-11T02:19:06;0.80;;;0.80;;
13764;SDS011;6953;48.810;9.204;2023-02-11T02:28:04;0.90;;;0.90;;
13764;SDS011;6953;48.810;9.204;2023-02-11T02:30:59;0.87;;;0.87;;
13764;SDS011;6953;48.810;9.204;2023-02-11T02:38:41;0.90;;;0.90;;
13764;SDS011;6953;48.810;9.204;2023-02-11T02:41:14;0.90;;;0.90;;
13764;SDS011;6953;48.810;9.204;2023-02-11T02:43:43;0.80;;;0.80;;
13764;SDS011;6953;48.810;9.204;2023-02-11T02:48:39;0.90;;;0.90;;
13764;SDS011;6953;48.810;9.204;2023-02-11T02:56:44;0.90;;;0.90;;
13764;SDS011;6953;48.810;9.204;2023-02-11T03:07:44;0.90;;;0.90;;
13764;SDS011;6953;48.810;9.204;2023-02-11T03:10:21;0.87;;;0.87;;
13764;SDS011;6953;48.810;9.204;2023-02-11T03:12:51;0.80;;;0.80;;
13764;SDS011;6953;48.810;9.204;2023-02-11T03:15:19;0.80;;;0.80;;
13764;SDS011;6953;48.810;9.204;2023-02-11T03:17:48;0.80;;;0.80;;
13764;SDS011;6953;48.810;9.204;2023-02-11T03:20:17;0.90;;;0.90;;
13764;SDS011;6953;48.810;9.204;2023-02-11T03:22:53;0.80;;;0.80;;
13764;SDS011;6953;48.810;9.204;2023-02-11T03:25:25;0.80;;;0.80;;
13764;SDS011;6953;48.810;9.204;2023-02-11T03:30:37;0.80;;;0.80;;
13764;SDS011;6953;48.810;9.204;2023-02-11T03:36:07;0.70;;;0.70;;
13764;SDS011;6953;48.810;9.204;2023-02-11T03:38:41;0.90;;;0.90;;
13764;SDS011;6953;48.810;9.204;2023-02-11T03:41:11;0.80;;;0.80;;
13764;SDS011;6953;48.810;9.204;2023-02-11T03:43:43;0.90;;;0.90;;
13764;SDS011;6953;48.810;9.204;2023-02-11T03:46:13;0.90;;;0.90;;
13764;SDS011;6953;48.810;9.204;2023-02-11T03:48:43;0.93;;;0.93;;
13764;SDS011;6953;48.810;9.204;2023-02-11T03:51:13;0.90;;;0.90;;
13764;SDS011;6953;48.810;9.204;2023-02-11T03:53:43;0.70;;;0.70;;
13764;SDS011;6953;48.810;9.204;2023-02-11T03:56:12;0.80;;;0.80;;
13764;SDS011;6953;48.810;9.204;2023-02-11T03:58:43;0.70;;;0.70;;
13764;SDS011;6953;48.810;9.204;2023-02-11T04:01:09;0.77;;;0.77;;
13764;SDS011;6953;48.810;9.204;2023-02-11T04:03:34;0.80;;;0.80;;
13764;SDS011;6953;48.810;9.204;2023-02-11T04:06:00;0.83;;;0.83;;
13764;SDS011;6953;48.810;9.204;2023-02-11T04:08:25;0.90;;;0.90;;
13764;SDS011;6953;48.810;9.204;2023-02-11T04:10:51;0.90;;;0.90;;
13764;SDS011;6953;48.810;9.204;2023-02-11T04:13:16;0.70;;;0.70;;
13764;SDS011;6953;48.810;9.204;2023-02-11T04:15:41;0.67;;;0.67;;
13764;SDS011;6953;48.810;9.204;2023-02-11T04:18:07;0.70;;;0.70;;
13764;SDS011;6953;48.810;9.204;2023-02-11T04:20:32;0.87;;;0.87;;
13764;SDS011;6953;48.810;9.204;2023-02-11T04:22:57;0.93;;;0.93;;
13764;SDS011;6953;48.810;9.204;2023-02-11T04:25:23;0.90;;;0.90;;
13764;SDS011;6953;48.810;9.204;2023-02-11T04:27:49;0.90;;;0.90;;
13764;SDS011;6953;48.810;9.204;2023-02-11T04:30:15;0.90;;;0.90;;
13764;SDS011;6953;48.810;9.204;2023-02-11T04:32:40;0.80;;;0.80;;
13764;SDS011;6953;48.810;9.204;2023-02-11T04:35:06;0.80;;;0.80;;
13764;SDS011;6953;48.810;9.204;2023-02-11T04:37:31;0.80;;;0.80;;
13764;SDS011;6953;48.810;9.204;2023-02-11T04:39:57;0.80;;;0.80;;
13764;SDS011;6953;48.810;9.204;2023-02-11T04:42:22;0.80;;;0.80;;
13764;SDS011;6953;48.810;9.204;2023-02-11T04:44:48;0.83;;;0.83;;
13764;SDS011;6953;48.810;9.204;2023-02-11T04:47:13;0.70;;;0.70;;
13764;SDS011;6953;48.810;9.204;2023-02-11T04:49:39;0.90;;;0.90;;
13764;SDS011;6953;48.810;9.204;2023-02-11T04:52:06;0.90;;;0.90;;
13764;SDS011;6953;48.810;9.204;2023-02-11T04:54:31;0.80;;;0.80;;
13764;SDS011;6953;48.810;9.204;2023-02-11T04:56:56;0.70;;;0.70;;
13764;SDS011;6953;48.810;9.204;2023-02-11T04:59:22;0.70;;;0.70;;
13764;SDS011;6953;48.810;9.204;2023-02-11T05:01:47;0.77;;;0.77;;
13764;SDS011;6953;48.810;9.204;2023-02-11T05:04:13;0.80;;;0.80;;
13764;SDS011;6953;48.810;9.204;2023-02-11T05:06:39;0.80;;;0.80;;
13764;SDS011;6953;48.810;9.204;2023-02-11T05:09:04;0.90;;;0.90;;
13764;SDS011;6953;48.810;9.204;2023-02-11T05:11:30;0.90;;;0.90;;
13764;SDS011;6953;48.810;9.204;2023-02-11T05:13:55;0.80;;;0.80;;
13764;SDS011;6953;48.810;9.204;2023-02-11T05:16:21;0.90;;;0.90;;
13764;SDS011;6953;48.810;9.204;2023-02-11T05:18:46;0.73;;;0.73;;
13764;SDS011;6953;48.810;9.204;2023-02-11T05:21:13;0.80;;;0.80;;
13764;SDS011;6953;48.810;9.204;2023-02-11T05:23:40;0.90;;;0.90;;
13764;SDS011;6953;48.810;9.204;2023-02-11T05:26:06;0.80;;;0.80;;
13764;SDS011;6953;48.810;9.204;2023-02-11T05:28:32;0.80;;;0.80;;
13764;SDS011;6953;48.810;9.204;2023-02-11T05:30:59;0.90;;;0.90;;
13764;SDS011;6953;48.810;9.204;2023-02-11T05:33:24;0.90;;;0.90;;
13764;SDS011;6953;48.810;9.204;2023-02-11T05:35:50;0.80;;;0.80;;
13764;SDS011;6953;48.810;9.204;2023-02-11T05:38:15;0.80;;;0.80;;
13764;SDS011;6953;48.810;9.204;2023-02-11T05:40:41;0.80;;;0.80;;
13764;SDS011;6953;48.810;9.204;2023-02-11T05:43:06;0.90;;;0.90;;
13764;SDS011;6953;48.810;9.204;2023-02-11T05:45:32;0.80;;;0.80;;
13764;SDS011;6953;48.810;9.204;2023-02-11T05:47:58;0.80;;;0.80;;
13764;SDS011;6953;48.810;9.204;2023-02-11T05:50:24;0.83;;;0.83;;
13764;SDS011;6953;48.810;9.204;2023-02-11T05:52:50;0.87;;;0.87;;
13764;SDS011;6953;48.810;9.204;2023-02-11T05:55:15;0.80;;;0.80;;
13764;SDS011;6953;48.810;9.204;2023-02-11T05:57:41;0.80;;;0.80;;
13764;SDS011;6953;48.810;9.204;2023-02-11T06:00:06;0.67;;;0.67;;
13764;SDS011;6953;48.810;9.204;2023-02-11T06:02:33;0.80;;;0.80;;
13764;SDS011;6953;48.810;9.204;2023-02-11T06:04:58;0.80;;;0.80;;
13764;SDS011;6953;48.810;9.204;2023-02-11T06:07:24;0.90;;;0.90;;
13764;SDS011;6953;48.810;9.204;2023-02-11T06:09:49;0.90;;;0.90;;
13764;SDS011;6953;48.810;9.204;2023-02-11T06:12:15;0.80;;;0.80;;
13764;SDS011;6953;48.810;9.204;2023-02-11T06:14:40;0.80;;;0.80;;
13764;SDS011;6953;48.810;9.204;2023-02-11T06:17:06;0.70;;;0.70;;
13764;SDS011;6953;48.810;9.204;2023-02-11T06:19:31;0.70;;;0.70;;
13764;SDS011;6953;48.810;9.204;2023-02-11T06:21:57;0.77;;;0.77;;
13764;SDS011;6953;48.810;9.204;2023-02-11T06:24:22;0.70;;;0.70;;
13764;SDS011;6953;48.810;9.204;2023-02-11T06:26:48;0.80;;;0.80;;
13764;SDS011;6953;48.810;9.204;2023-02-11T06:29:13;0.77;;;0.77;;
13764;SDS011;6953;48.810;9.204;2023-02-11T06:31:39;0.90;;;0.90;;
13764;SDS011;6953;48.810;9.204;2023-02-11T06:34:05;0.80;;;0.80;;
13764;SDS011;6953;48.810;9.204;2023-02-11T06:36:31;0.90;;;0.90;;
13764;SDS011;6953;48.810;9.204;2023-02-11T06:38:57;0.80;;;0.80;;
13764;SDS011;6953;48.810;9.204;2023-02-11T06:41:22;0.80;;;0.80;;
13764;SDS011;6953;48.810;9.204;2023-02-11T06:43:49;0.80;;;0.80;;
13764;SDS011;6953;48.810;9.204;2023-02-11T06:46:16;0.90;;;0.90;;
13764;SDS011;6953;48.810;9.204;2023-02-11T06:48:41;0.90;;;0.90;;
13764;SDS011;6953;48.810;9.204;2023-02-11T06:51:07;0.80;;;0.80;;
13764;SDS011;6953;48.810;9.204;2023-02-11T06:53:35;0.93;;;0.93;;
13764;SDS011;6953;48.810;9.204;2023-02-11T06:56:07;0.80;;;0.80;;
13764;SDS011;6953;48.810;9.204;2023-02-11T06:58:35;0.90;;;0.90;;
13764;SDS011;6953;48.810;9.204;2023-02-11T07:01:07;0.90;;;0.90;;
13764;SDS011;6953;48.810;9.204;2023-02-11T07:03:35;1.00;;;1.00;;
13764;SDS011;6953;48.810;9.204;2023-02-11T07:06:02;1.00;;;1.00;;
13764;SDS011;6953;48.810;9.204;2023-02-11T07:08:29;0.90;;;0.90;;
13764;SDS011;6953;48.810;9.204;2023-02-11T07:10:56;0.80;;;0.80;;
13764;SDS011;6953;48.810;9.204;2023-02-11T07:13:22;0.80;;;0.80;;
13764;SDS011;6953;48.810;9.204;2023-02-11T07:15:47;0.80;;;0.80;;
13764;SDS011;6953;48.810;9.204;2023-02-11T07:18:12;0.90;;;0.90;;
13764;SDS011;6953;48.810;9.204;2023-02-11T07:20:37;0.93;;;0.93;;
13764;SDS011;6953;48.810;9.204;2023-02-11T07:23:03;0.90;;;0.90;;
13764;SDS011;6953;48.810;9.204;2023-02-11T07:25:29;0.73;;;0.73;;
13764;SDS011;6953;48.810;9.204;2023-02-11T07:27:54;0.90;;;0.90;;
13764;SDS011;6953;48.810;9.204;2023-02-11T07:30:20;0.83;;;0.83;;
13764;SDS011;6953;48.810;9.204;2023-02-11T07:32:45;0.80;;;0.80;;
13764;SDS011;6953;48.810;9.204;2023-02-11T07:35:11;0.90;;;0.90;;
13764;SDS011;6953;48.810;9.204;2023-02-11T07:37:36;0.93;;;0.93;;
13764;SDS011;6953;48.810;9.204;2023-02-11T07:40:02;0.87;;;0.87;;
13764;SDS011;6953;48.810;9.204;2023-02-11T07:42:28;0.80;;;0.80;;
13764;SDS011;6953;48.810;9.204;2023-02-11T07:44:53;0.70;;;0.70;;
13764;SDS011;6953;48.810;9.204;2023-02-11T07:47:18;0.83;;;0.83;;
13764;SDS011;6953;48.810;9.204;2023-02-11T07:49:44;0.90;;;0.90;;
13764;SDS011;6953;48.810;9.204;2023-02-11T07:52:09;0.90;;;0.90;;
13764;SDS011;6953;48.810;9.204;2023-02-11T07:54:35;0.70;;;0.70;;
13764;SDS011;6953;48.810;9.204;2023-02-11T07:57:00;0.80;;;0.80;;
13764;SDS011;6953;48.810;9.204;2023-02-11T07:59:25;0.80;;;0.80;;
13764;SDS011;6953;48.810;9.204;2023-02-11T08:01:51;0.80;;;0.80;;
13764;SDS011;6953;48.810;9.204;2023-02-11T08:04:16;0.70;;;0.70;;
13764;SDS011;6953;48.810;9.204;2023-02-11T08:06:42;0.70;;;0.70;;
13764;SDS011;6953;48.810;9.204;2023-02-11T08:09:08;0.90;;;0.90;;
13764;SDS011;6953;48.810;9.204;2023-02-11T08:11:38;0.70;;;0.70;;
13764;SDS011;6953;48.810;9.204;2023-02-11T08:14:03;0.80;;;0.80;;
13764;SDS011;6953;48.810;9.204;2023-02-11T08:16:33;0.63;;;0.63;;
13764;SDS011;6953;48.810;9.204;2023-02-11T08:19:00;0.70;;;0.70;;
13764;SDS011;6953;48.810;9.204;2023-02-11T08:21:28;0.80;;;0.80;;
13764;SDS011;6953;48.810;9.204;2023-02-11T08:23:53;0.80;;;0.80;;
13764;SDS011;6953;48.810;9.204;2023-02-11T08:26:21;0.70;;;0.70;;
13764;SDS011;6953;48.810;9.204;2023-02-11T08:28:53;0.70;;;0.70;;
13764;SDS011;6953;48.810;9.204;2023-02-11T08:31:20;0.63;;;0.63;;
13764;SDS011;6953;48.810;9.204;2023-02-11T08:33:47;0.80;;;0.80;;
13764;SDS011;6953;48.810;9.204;2023-02-11T08:36:13;0.70;;;0.70;;
13764;SDS011;6953;48.810;9.204;2023-02-11T08:38:40;0.70;;;0.70;;
13764;SDS011;6953;48.810;9.204;2023-02-11T08:41:07;0.70;;;0.70;;
13764;SDS011;6953;48.810;9.204;2023-02-11T08:43:33;0.60;;;0.60;;
13764;SDS011;6953;48.810;9.204;2023-02-11T08:45:59;0.73;;;0.73;;
13764;SDS011;6953;48.810;9.204;2023-02-11T08:48:24;0.50;;;0.50;;
13764;SDS011;6953;48.810;9.204;2023-02-11T08:50:52;0.70;;;0.70;;
13764;SDS011;6953;48.810;9.204;2023-02-11T08:53:21;0.50;;;0.50;;
13764;SDS011;6953;48.810;9.204;2023-02-11T08:55:53;0.60;;;0.60;;
13764;SDS011;6953;48.810;9.204;2023-02-11T08:58:19;0.60;;;0.60;;
13764;SDS011;6953;48.810;9.204;2023-02-11T09:00:45;0.70;;;0.70;;
13764;SDS011;6953;48.810;9.204;2023-02-11T09:03:12;0.50;;;0.50;;
13764;SDS011;6953;48.810;9.204;2023-02-11T09:05:42;0.60;;;0.60;;
13764;SDS011;6953;48.810;9.204;2023-02-11T09:08:08;0.60;;;0.60;;
13764;SDS011;6953;48.810;9.204;2023-02-11T09:10:34;0.50;;;0.50;;
13764;SDS011;6953;48.810;9.204;2023-02-11T09:13:00;0.50;;;0.50;;
13764;SDS011;6953;48.810;9.204;2023-02-11T09:15:26;0.50;;;0.50;;
13764;SDS011;6953;48.810;9.204;2023-02-11T09:17:51;0.50;;;0.50;;
13764;SDS011;6953;48.810;9.204;2023-02-11T09:20:16;0.40;;;0.40;;
13764;SDS011;6953;48.810;9.204;2023-02-11T09:22:42;0.43;;;0.43;;
13764;SDS011;6953;48.810;9.204;2023-02-11T09:25:08;0.38;;;0.38;;
13764;SDS011;6953;48.810;9.204;2023-02-11T09:27:34;0.40;;;0.40;;
13764;SDS011;6953;48.810;9.204;2023-02-11T09:29:59;0.40;;;0.40;;
13764;SDS011;6953;48.810;9.204;2023-02-11T09:32:25;0.30;;;0.30;;
13764;SDS011;6953;48.810;9.204;2023-02-11T09:34:50;0.30;;;0.30;;
13764;SDS011;6953;48.810;9.204;2023-02-11T09:37:15;0.30;;;0.30;;
13764;SDS011;6953;48.810;9.204;2023-02-11T09:39:41;0.30;;;0.30;;
13764;SDS011;6953;48.810;9.204;2023-02-11T09:42:08;0.30;;;0.30;;
13764;SDS011;6953;48.810;9.204;2023-02-11T09:44:35;0.30;;;0.30;;
13764;SDS011;6953;48.810;9.204;2023-02-11T09:47:03;0.20;;;0.20;;
13764;SDS011;6953;48.810;9.204;2023-02-11T09:49:40;0.20;;;0.20;;
13764;SDS011;6953;48.810;9.204;2023-02-11T09:52:12;0.30;;;0.30;;
13764;SDS011;6953;48.810;9.204;2023-02-11T09:57:25;0.30;;;0.30;;
13764;SDS011;6953;48.810;9.204;2023-02-11T09:59:57;0.20;;;0.20;;
13764;SDS011;6953;48.810;9.204;2023-02-11T10:05:24;0.20;;;0.20;;
13764;SDS011;6953;48.810;9.204;2023-02-11T10:23:51;0.10;;;0.10;;
13764;SDS011;6953;48.810;9.204;2023-02-11T10:26:25;0.20;;;0.20;;
13764;SDS011;6953;48.810;9.204;2023-02-11T10:28:54;0.10;;;0.10;;
13764;SDS011;6953;48.810;9.204;2023-02-11T10:31:26;0.10;;;0.10;;
13764;SDS011;6953;48.810;9.204;2023-02-11T10:33:58;0.20;;;0.20;;
13764;SDS011;6953;48.810;9.204;2023-02-11T10:36:29;0.10;;;0.10;;
13764;SDS011;6953;48.810;9.204;2023-02-11T10:38:58;0.10;;;0.10;;
13764;SDS011;6953;48.810;9.204;2023-02-11T10:41:26;0.10;;;0.10;;
13764;SDS011;6953;48.810;9.204;2023-02-11T10:43:55;0.10;;;0.10;;
13764;SDS011;6953;48.810;9.204;2023-02-11T10:46:21;0.10;;;0.10;;
13764;SDS011;6953;48.810;9.204;2023-02-11T10:48:51;0.10;;;0.10;;
13764;SDS011;6953;48.810;9.204;2023-02-11T10:51:27;0.10;;;0.10;;
13764;SDS011;6953;48.810;9.204;2023-02-11T10:56:36;0.20;;;0.20;;
13764;SDS011;6953;48.810;9.204;2023-02-11T11:01:49;0.10;;;0.10;;
13764;SDS011;6953;48.810;9.204;2023-02-11T11:04:26;0.10;;;0.10;;
13764;SDS011;6953;48.810;9.204;2023-02-11T11:07:01;0.10;;;0.10;;
13764;SDS011;6953;48.810;9.204;2023-02-11T11:09:45;0.13;;;0.13;;
13764;SDS011;6953;48.810;9.204;2023-02-11T11:15:27;0.10;;;0.10;;
13764;SDS011;6953;48.810;9.204;2023-02-11T11:18:12;0.10;;;0.10;;
13764;SDS011;6953;48.810;9.204;2023-02-11T11:20:43;0.10;;;0.10;;
13764;SDS011;6953;48.810;9.204;2023-02-11T11:23:30;0.10;;;0.10;;
13764;SDS011;6953;48.810;9.204;2023-02-11T11:28:30;0.10;;;0.10;;
13764;SDS011;6953;48.810;9.204;2023-02-11T11:31:02;0.03;;;0.03;;
13764;SDS011;6953;48.810;9.204;2023-02-11T11:33:33;0.08;;;0.08;;
13764;SDS011;6953;48.810;9.204;2023-02-11T11:36:03;0.05;;;0.05;;
13764;SDS011;6953;48.810;9.204;2023-02-11T11:38:32;0.00;;;0.00;;
13764;SDS011;6953;48.810;9.204;2023-02-11T11:41:15;0.10;;;0.10;;
13764;SDS011;6953;48.810;9.204;2023-02-11T11:46:40;0.00;;;0.00;;
13764;SDS011;6953;48.810;9.204;2023-02-11T11:51:47;0.00;;;0.00;;
13764;SDS011;6953;48.810;9.204;2023-02-11T11:54:20;0.00;;;0.00;;
13764;SDS011;6953;48.810;9.204;2023-02-11T11:56:52;0.00;;;0.00;;
13764;SDS011;6953;48.810;9.204;2023-02-11T11:59:23;0.00;;;0.00;;
13764;SDS011;6953;48.810;9.204;2023-02-11T12:04:50;0.00;;;0.00;;
13764;SDS011;6953;48.810;9.204;2023-02-11T12:07:41;0.00;;;0.00;;
13764;SDS011;6953;48.810;9.204;2023-02-11T12:13:15;0.03;;;0.03;;
13764;SDS011;6953;48.810;9.204;2023-02-11T12:24:25;0.00;;;0.00;;
13764;SDS011;6953;48.810;9.204;2023-02-11T12:27:08;0.00;;;0.00;;
13764;SDS011;6953;48.810;9.204;2023-02-11T12:32:36;0.10;;;0.10;;
13764;SDS011;6953;48.810;9.204;2023-02-11T12:35:14;0.10;;;0.10;;
13764;SDS011;6953;48.810;9.204;2023-02-11T12:40:25;0.10;;;0.10;;
13764;SDS011;6953;48.810;9.204;2023-02-11T12:54:30;0.22;;;0.22;;
13764;SDS011;6953;48.810;9.204;2023-02-11T13:05:26;0.20;;;0.20;;
13764;SDS011;6953;48.810;9.204;2023-02-11T13:08:02;0.30;;;0.30;;
13764;SDS011;6953;48.810;9.204;2023-02-11T13:10:35;0.30;;;0.30;;
13764;SDS011;6953;48.810;9.204;2023-02-11T13:13:10;0.40;;;0.40;;
13764;SDS011;6953;48.810;9.204;2023-02-11T13:15:49;0.40;;;0.40;;
13764;SDS011;6953;48.810;9.204;2023-02-11T13:18:24;0.40;;;0.40;;
13764;SDS011;6953;48.810;9.204;2023-02-11T13:31:26;0.40;;;0.40;;
13764;SDS011;6953;48.810;9.204;2023-02-11T13:33:53;0.40;;;0.40;;
13764;SDS011;6953;48.810;9.204;2023-02-11T13:36:22;0.40;;;0.40;;
13764;SDS011;6953;48.810;9.204;2023-02-11T13:38:54;0.25;;;0.25;;
13764;SDS011;6953;48.810;9.204;2023-02-11T13:41:36;0.40;;;0.40;;
13764;SDS011;6953;48.810;9.204;2023-02-11T13:47:00;0.30;;;0.30;;
13764;SDS011;6953;48.810;9.204;2023-02-11T13:52:23;0.30;;;0.30;;
13764;SDS011;6953;48.810;9.204;2023-02-11T13:54:53;0.40;;;0.40;;
13764;SDS011;6953;48.810;9.204;2023-02-11T13:57:24;0.40;;;0.40;;
13764;SDS011;6953;48.810;9.204;2023-02-11T14:00:00;0.40;;;0.40;;
13764;SDS011;6953;48.810;9.204;2023-02-11T14:02:32;0.40;;;0.40;;
13764;SDS011;6953;48.810;9.204;2023-02-11T14:10:52;0.40;;;0.40;;
13764;SDS011;6953;48.810;9.204;2023-02-11T14:13:29;0.40;;;0.40;;
13764;SDS011;6953;48.810;9.204;2023-02-11T14:23:38;0.50;;;0.50;;
13764;SDS011;6953;48.810;9.204;2023-02-11T14:26:16;0.50;;;0.50;;
13764;SDS011;6953;48.810;9.204;2023-02-11T14:29:02;0.60;;;0.60;;
13764;SDS011;6953;48.810;9.204;2023-02-11T14:31:42;0.50;;;0.50;;
13764;SDS011;6953;48.810;9.204;2023-02-11T14:37:15;0.60;;;0.60;;
13764;SDS011;6953;48.810;9.204;2023-02-11T14:42:14;0.60;;;0.60;;
13764;SDS011;6953;48.810;9.204;2023-02-11T14:44:44;0.50;;;0.50;;
13764;SDS011;6953;48.810;9.204;2023-02-11T14:47:20;0.40;;;0.40;;
13764;SDS011;6953;48.810;9.204;2023-02-11T14:49:49;0.52;;;0.52;;
13764;SDS011;6953;48.810;9.204;2023-02-11T14:54:50;0.52;;;0.52;;
13764;SDS011;6953;48.810;9.204;2023-02-11T14:57:21;0.50;;;0.50;;
13764;SDS011;6953;48.810;9.204;2023-02-11T15:02:38;0.40;;;0.40;;
13764;SDS011;6953;48.810;9.204;2023-02-11T15:05:17;0.40;;;0.40;;
13764;SDS011;6953;48.810;9.204;2023-02-11T15:07:52;0.50;;;0.50;;
13764;SDS011;6953;48.810;9.204;2023-02-11T15:10:25;0.52;;;0.52;;
13764;SDS011;6953;48.810;9.204;2023-02-11T15:13:07;0.43;;;0.43;;
13764;SDS011;6953;48.810;9.204;2023-02-11T15:15:33;0.50;;;0.50;;
13764;SDS011;6953;48.810;9.204;2023-02-11T15:18:01;0.50;;;0.50;;
13764;SDS011;6953;48.810;9.204;2023-02-11T15:20:29;0.60;;;0.60;;
13764;SDS011;6953;48.810;9.204;2023-02-11T15:22:57;0.52;;;0.52;;
13764;SDS011;6953;48.810;9.204;2023-02-11T15:25:25;0.40;;;0.40;;
13764;SDS011;6953;48.810;9.204;2023-02-11T15:27:53;0.45;;;0.45;;
13764;SDS011;6953;48.810;9.204;2023-02-11T15:32:46;0.47;;;0.47;;
13764;SDS011;6953;48.810;9.204;2023-02-11T15:35:13;0.50;;;0.50;;
13764;SDS011;6953;48.810;9.204;2023-02-11T15:37:39;0.50;;;0.50;;
13764;SDS011;6953;48.810;9.204;2023-02-11T15:40:18;0.50;;;0.50;;
13764;SDS011;6953;48.810;9.204;2023-02-11T15:42:56;0.50;;;0.50;;
13764;SDS011;6953;48.810;9.204;2023-02-11T15:45:30;0.60;;;0.60;;
13764;SDS011;6953;48.810;9.204;2023-02-11T15:50:30;0.50;;;0.50;;
13764;SDS011;6953;48.810;9.204;2023-02-11T15:52:59;0.60;;;0.60;;
13764;SDS011;6953;48.810;9.204;2023-02-11T15:55:26;0.60;;;0.60;;
13764;SDS011;6953;48.810;9.204;2023-02-11T15:57:54;0.50;;;0.50;;
13764;SDS011;6953;48.810;9.204;2023-02-11T16:00:22;0.47;;;0.47;;
13764;SDS011;6953;48.810;9.204;2023-02-11T16:02:52;0.57;;;0.57;;
13764;SDS011;6953;48.810;9.204;2023-02-11T16:05:25;0.60;;;0.60;;
13764;SDS011;6953;48.810;9.204;2023-02-11T16:07:55;0.45;;;0.45;;
13764;SDS011;6953;48.810;9.204;2023-02-11T16:10:31;0.50;;;0.50;;
13764;SDS011;6953;48.810;9.204;2023-02-11T16:18:03;0.50;;;0.50;;
13764;SDS011;6953;48.810;9.204;2023-02-11T16:20:37;0.50;;;0.50;;
13764;SDS011;6953;48.810;9.204;2023-02-11T16:23:03;0.60;;;0.60;;
13764;SDS011;6953;48.810;9.204;2023-02-11T16:25:30;0.60;;;0.60;;
13764;SDS011;6953;48.810;9.204;2023-02-11T16:27:58;0.50;;;0.50;;
13764;SDS011;6953;48.810;9.204;2023-02-11T16:33:01;0.60;;;0.60;;
13764;SDS011;6953;48.810;9.204;2023-02-11T16:35:28;0.50;;;0.50;;
13764;SDS011;6953;48.810;9.204;2023-02-11T16:37:54;0.40;;;0.40;;
13764;SDS011;6953;48.810;9.204;2023-02-11T16:40:19;0.50;;;0.50;;
13764;SDS011;6953;48.810;9.204;2023-02-11T16:42:47;0.50;;;0.50;;
13764;SDS011;6953;48.810;9.204;2023-02-11T16:45:13;0.57;;;0.57;;
13764;SDS011;6953;48.810;9.204;2023-02-11T16:47:39;0.55;;;0.55;;
13764;SDS011;6953;48.810;9.204;2023-02-11T16:50:10;0.60;;;0.60;;
13764;SDS011;6953;48.810;9.204;2023-02-11T16:52:43;0.50;;;0.50;;
13764;SDS011;6953;48.810;9.204;2023-02-11T16:55:10;0.50;;;0.50;;
13764;SDS011;6953;48.810;9.204;2023-02-11T16:57:36;0.50;;;0.50;;
13764;SDS011;6953;48.810;9.204;2023-02-11T17:00:03;0.50;;;0.50;;
13764;SDS011;6953;48.810;9.204;2023-02-11T17:02:31;0.60;;;0.60;;
13764;SDS011;6953;48.810;9.204;2023-02-11T17:04:59;0.60;;;0.60;;
13764;SDS011;6953;48.810;9.204;2023-02-11T17:07:27;0.50;;;0.50;;
13764;SDS011;6953;48.810;9.204;2023-02-11T17:09:52;0.60;;;0.60;;
13764;SDS011;6953;48.810;9.204;2023-02-11T17:12:18;0.50;;;0.50;;
13764;SDS011;6953;48.810;9.204;2023-02-11T17:14:44;0.50;;;0.50;;
13764;SDS011;6953;48.810;9.204;2023-02-11T17:17:10;0.50;;;0.50;;
13764;SDS011;6953;48.810;9.204;2023-02-11T17:19:36;0.50;;;0.50;;
13764;SDS011;6953;48.810;9.204;2023-02-11T17:22:02;0.52;;;0.52;;
13764;SDS011;6953;48.810;9.204;2023-02-11T17:24:28;0.60;;;0.60;;
13764;SDS011;6953;48.810;9.204;2023-02-11T17:26:53;0.60;;;0.60;;
13764;SDS011;6953;48.810;9.204;2023-02-11T17:29:21;0.60;;;0.60;;
13764;SDS011;6953;48.810;9.204;2023-02-11T17:31:49;0.60;;;0.60;;
13764;SDS011;6953;48.810;9.204;2023-02-11T17:34:18;0.60;;;0.60;;
13764;SDS011;6953;48.810;9.204;2023-02-11T17:36:44;0.50;;;0.50;;
13764;SDS011;6953;48.810;9.204;2023-02-11T17:39:10;0.50;;;0.50;;
13764;SDS011;6953;48.810;9.204;2023-02-11T17:41:36;0.57;;;0.57;;
13764;SDS011;6953;48.810;9.204;2023-02-11T17:44:02;0.57;;;0.57;;
13764;SDS011;6953;48.810;9.204;2023-02-11T17:46:29;0.50;;;0.50;;
13764;SDS011;6953;48.810;9.204;2023-02-11T17:48:59;0.60;;;0.60;;
13764;SDS011;6953;48.810;9.204;2023-02-11T17:51:27;0.50;;;0.50;;
13764;SDS011;6953;48.810;9.204;2023-02-11T17:53:56;0.60;;;0.60;;
13764;SDS011;6953;48.810;9.204;2023-02-11T17:56:23;0.50;;;0.50;;